Time;durP1;ratioP1;P1;durP2;ratioP2;P2;SDS_P1;SDS_P2;PMS_P1;PMS_P2;Temp;Humidity;BMP_temperature;BMP_pressure;BME280_temperature;BME280_humidity;BME280_pressure;Samples;Min_cycle;Max_cycle;Signal;HPM_P1;HPM_P2
2022/02/03 00:05:01;;;;;;;7.10;6.40;;;8.00;99.90;;;;;;5071534;28;20212;-62
2022/02/03 00:07:36;;;;;;;7.32;6.57;;;8.20;99.90;;;;;;5063227;28;20242;-60
2022/02/03 00:26:35;;;;;;;8.65;7.85;;;7.60;99.90;;;;;;5061982;28;20189;-62
2022/02/03 00:29:04;;;;;;;7.47;6.78;;;8.00;99.90;;;;;;5062265;28;20590;-60
2022/02/03 00:34:11;;;;;;;8.07;6.80;;;8.40;99.90;;;;;;5066096;28;20689;-62
2022/02/03 00:50:30;;;;;;;6.90;6.30;;;8.30;99.90;;;;;;5067964;28;20827;-60
2022/02/03 00:52:57;;;;;;;8.25;7.38;;;8.20;99.90;;;;;;5067175;28;20666;-60
2022/02/03 00:55:23;;;;;;;7.95;7.13;;;8.10;99.90;;;;;;5065434;28;20215;-61
2022/02/03 00:57:53;;;;;;;8.10;7.20;;;8.20;99.90;;;;;;5066569;28;20188;-60
2022/02/03 01:00:20;;;;;;;9.23;7.40;;;8.00;99.90;;;;;;5062531;28;20177;-60
2022/02/03 01:02:55;;;;;;;7.90;7.10;;;8.30;99.90;;;;;;5060362;28;20189;-62
2022/02/03 01:05:20;;;;;;;7.43;6.65;;;8.20;99.90;;;;;;5073393;28;20240;-60
2022/02/03 01:07:50;;;;;;;7.00;6.30;;;8.20;99.90;;;;;;5067320;28;20654;-60
2022/02/03 01:10:24;;;;;;;8.55;7.75;;;8.40;99.90;;;;;;5065137;28;20208;-61
2022/02/03 01:13:05;;;;;;;8.10;7.30;;;8.50;99.90;;;;;;5064731;28;20224;-60
2022/02/03 01:21:10;;;;;;;7.97;7.18;;;8.30;99.90;;;;;;5075722;28;20215;-60
2022/02/03 01:53:42;;;;;;;7.97;7.18;;;8.60;99.90;;;;;;5068409;28;20216;-59
2022/02/03 01:56:11;;;;;;;7.22;6.47;;;8.70;99.90;;;;;;5063563;28;20209;-61
2022/02/03 01:58:42;;;;;;;7.85;6.70;;;8.40;99.90;;;;;;5057474;28;20725;-59
2022/02/03 02:01:12;;;;;;;7.13;6.20;;;8.50;99.90;;;;;;5064136;28;20191;-59
2022/02/03 02:03:39;;;;;;;6.78;6.05;;;8.70;99.90;;;;;;5056706;28;20278;-60
2022/02/03 02:06:14;;;;;;;7.97;6.97;;;8.50;99.90;;;;;;5067334;28;20185;-61
2022/02/03 02:09:02;;;;;;;8.00;6.25;;;8.40;99.90;;;;;;5067736;28;20188;-60
2022/02/03 02:11:57;;;;;;;7.20;6.15;;;8.00;99.90;;;;;;5060795;28;20194;-62
2022/02/03 02:39:48;;;;;;;7.55;6.45;;;8.40;99.90;;;;;;5063370;28;20680;-60
2022/02/03 02:42:32;;;;;;;6.78;6.13;;;8.30;99.90;;;;;;5053671;28;20201;-60
2022/02/03 02:45:10;;;;;;;7.60;6.88;;;8.30;99.90;;;;;;5059275;28;20233;-60
2022/02/03 02:47:47;;;;;;;6.88;6.18;;;8.40;99.90;;;;;;5056701;28;20306;-61
2022/02/03 02:50:13;;;;;;;6.93;6.30;;;8.40;99.90;;;;;;5058765;28;20234;-60
2022/02/03 02:52:52;;;;;;;7.20;6.50;;;8.50;99.90;;;;;;5062939;28;20184;-60
2022/02/03 03:31:59;;;;;;;6.53;5.80;;;8.50;99.90;;;;;;5069578;28;20782;-60
2022/02/03 03:34:59;;;;;;;5.35;4.85;;;8.50;99.90;;;;;;5073167;28;20216;-60
2022/02/03 03:37:36;;;;;;;5.10;4.63;;;8.80;99.90;;;;;;5066768;28;20189;-60
2022/02/03 03:40:05;;;;;;;5.57;4.90;;;8.70;99.90;;;;;;5057338;28;20656;-62
2022/02/03 03:42:34;;;;;;;5.90;5.30;;;8.70;99.90;;;;;;5057953;28;20552;-61
2022/02/03 03:45:07;;;;;;;5.30;4.60;;;8.60;99.90;;;;;;5068457;28;20205;-62
2022/02/03 03:47:35;;;;;;;6.15;5.55;;;8.30;99.90;;;;;;5060521;28;20178;-61
2022/02/03 03:50:13;;;;;;;6.20;5.60;;;8.40;99.90;;;;;;5067115;28;20173;-60
2022/02/03 03:52:58;;;;;;;5.70;5.15;;;8.50;99.90;;;;;;5068408;28;20181;-61
2022/02/03 04:55:27;;;;;;;7.70;6.85;;;8.20;99.90;;;;;;5063517;28;20274;-63
2022/02/03 04:59:06;;;;;;;10.23;7.03;;;8.20;99.90;;;;;;5053422;28;20206;-59
2022/02/03 05:16:58;;;;;;;9.38;7.60;;;8.30;99.90;;;;;;5070878;28;20216;-65
2022/02/03 05:26:16;;;;;;;9.05;6.50;;;7.80;99.90;;;;;;5067232;28;20215;-60
2022/02/03 05:46:05;;;;;;;8.65;7.63;;;8.00;99.90;;;;;;5067340;28;20643;-60
2022/02/03 05:48:55;;;;;;;9.10;8.10;;;7.60;99.90;;;;;;5057993;28;20196;-60
2022/02/03 06:07:41;;;;;;;9.03;8.13;;;7.90;99.90;;;;;;5060825;28;20181;-59
2022/02/03 06:13:11;;;;;;;10.23;9.23;;;7.60;99.90;;;;;;5052234;28;20185;-60
2022/02/03 06:16:06;;;;;;;12.57;8.98;;;7.10;99.90;;;;;;5061977;28;20177;-60
2022/02/03 06:21:28;;;;;;;9.77;7.95;;;7.30;99.90;;;;;;5065670;28;20247;-62
2022/02/03 06:24:02;;;;;;;9.00;8.10;;;7.30;99.90;;;;;;5058745;28;20208;-62
2022/02/03 06:29:16;;;;;;;11.63;8.50;;;7.30;99.90;;;;;;5051366;28;20192;-61
2022/02/03 06:31:44;;;;;;;8.90;7.47;;;7.00;99.90;;;;;;5063162;28;20244;-60
2022/02/03 06:34:11;;;;;;;8.93;8.02;;;7.60;99.90;;;;;;5054498;28;20216;-59
2022/02/03 06:36:38;;;;;;;7.93;7.13;;;7.50;99.90;;;;;;5063001;28;20185;-60
2022/02/03 06:39:17;;;;;;;8.35;7.50;;;7.60;99.90;;;;;;5064781;28;20184;-59
2022/02/03 06:41:43;;;;;;;12.10;10.13;;;7.60;99.90;;;;;;5055086;28;20292;-60
2022/02/03 06:44:10;;;;;;;8.82;7.85;;;7.60;99.90;;;;;;5053981;28;20219;-59
2022/02/03 06:46:38;;;;;;;11.15;9.40;;;7.70;99.90;;;;;;5061899;28;20192;-59
2022/02/03 06:49:14;;;;;;;13.38;11.50;;;7.60;99.90;;;;;;5059553;28;20181;-58
2022/02/03 06:51:48;;;;;;;9.13;8.23;;;7.50;99.90;;;;;;5066878;28;20284;-61
2022/02/03 06:54:24;;;;;;;10.23;8.00;;;7.60;99.90;;;;;;5067661;28;20709;-61
2022/02/03 06:56:56;;;;;;;10.50;9.50;;;7.30;99.90;;;;;;5059276;28;20242;-61
2022/02/03 06:59:29;;;;;;;8.73;7.90;;;7.90;99.90;;;;;;5069147;28;20566;-60
2022/02/03 07:01:54;;;;;;;9.40;8.40;;;7.80;99.90;;;;;;5058511;28;20237;-61
2022/02/03 07:04:25;;;;;;;9.73;7.97;;;7.70;99.90;;;;;;5063593;28;20216;-58
2022/02/03 07:06:50;;;;;;;8.13;7.03;;;7.80;99.90;;;;;;5059754;28;20264;-58
2022/02/03 07:09:16;;;;;;;11.33;7.43;;;8.10;99.90;;;;;;5066435;28;20240;-57
2022/02/03 07:11:43;;;;;;;8.80;7.90;;;7.70;99.90;;;;;;5069868;28;20193;-57
2022/02/03 07:14:10;;;;;;;8.82;7.55;;;7.80;99.90;;;;;;5069837;28;20387;-58
2022/02/03 07:16:45;;;;;;;9.32;8.27;;;8.00;99.90;;;;;;5061901;28;20185;-62
2022/02/03 07:19:11;;;;;;;8.95;8.02;;;7.90;99.90;;;;;;5057342;28;20185;-59
2022/02/03 07:21:36;;;;;;;10.70;9.60;;;7.80;99.90;;;;;;5072174;28;20173;-59
2022/02/03 07:24:02;;;;;;;8.83;7.80;;;7.90;99.90;;;;;;5070901;28;20467;-60
2022/02/03 07:26:27;;;;;;;7.97;7.23;;;7.90;99.90;;;;;;5063261;28;20502;-56
2022/02/03 07:28:53;;;;;;;9.90;7.57;;;8.30;99.90;;;;;;5062237;28;20714;-58
2022/02/03 07:31:18;;;;;;;7.20;6.50;;;8.10;99.90;;;;;;5062739;28;20207;-58
2022/02/03 07:33:44;;;;;;;10.40;7.20;;;8.40;99.90;;;;;;5071384;28;20208;-63
2022/02/03 07:36:11;;;;;;;8.57;7.67;;;8.20;99.90;;;;;;5056507;28;20213;-60
2022/02/03 07:38:38;;;;;;;7.75;6.90;;;8.00;99.90;;;;;;5067114;28;20201;-58
2022/02/03 07:41:04;;;;;;;10.38;8.70;;;8.30;99.90;;;;;;5072837;28;20470;-58
2022/02/03 07:43:29;;;;;;;7.63;6.83;;;8.20;99.90;;;;;;5069610;28;20202;-61
2022/02/03 07:45:57;;;;;;;8.73;7.93;;;8.40;99.90;;;;;;5056786;28;20196;-61
2022/02/03 07:48:23;;;;;;;8.45;7.47;;;8.30;99.90;;;;;;5060323;28;20242;-61
2022/02/03 07:50:48;;;;;;;9.73;8.73;;;8.50;99.90;;;;;;5071008;28;20190;-60
2022/02/03 07:53:14;;;;;;;9.33;7.50;;;8.50;99.90;;;;;;5070792;28;20221;-61
2022/02/03 07:55:40;;;;;;;8.40;7.10;;;8.60;99.90;;;;;;5052173;28;20186;-61
2022/02/03 07:58:05;;;;;;;8.07;6.50;;;8.50;99.90;;;;;;5054405;28;20920;-61
2022/02/03 08:00:31;;;;;;;7.23;6.53;;;8.60;99.90;;;;;;5068245;28;20204;-61
2022/02/03 08:02:57;;;;;;;9.57;7.20;;;8.70;99.90;;;;;;5062308;28;20196;-67
2022/02/03 08:05:24;;;;;;;8.93;7.73;;;8.90;99.90;;;;;;5068651;28;20213;-60
2022/02/03 08:10:42;;;;;;;8.63;7.70;;;8.60;99.90;;;;;;5057386;28;20765;-60
2022/02/03 08:13:12;;;;;;;7.55;6.75;;;8.50;99.90;;;;;;5070733;28;20209;-62
2022/02/03 08:15:40;;;;;;;8.13;7.43;;;8.60;99.90;;;;;;5063651;28;20197;-62
2022/02/03 08:18:10;;;;;;;7.78;7.07;;;8.70;99.90;;;;;;5054758;28;20204;-61
2022/02/03 08:20:38;;;;;;;9.50;8.35;;;8.60;99.90;;;;;;5056388;28;20178;-60
2022/02/03 08:23:29;;;;;;;9.63;7.47;;;8.80;99.90;;;;;;5065248;28;20198;-61
2022/02/03 08:26:07;;;;;;;9.25;7.15;;;8.80;99.90;;;;;;5071332;28;20670;-63
2022/02/03 08:31:07;;;;;;;12.43;7.65;;;9.10;99.90;;;;;;5065304;28;20591;-58
2022/02/03 08:33:33;;;;;;;11.55;7.10;;;8.80;99.90;;;;;;5061173;28;20248;-60
2022/02/03 08:36:04;;;;;;;8.10;7.30;;;9.00;99.90;;;;;;5066093;28;20231;-59
2022/02/03 08:41:07;;;;;;;7.50;6.80;;;9.70;99.90;;;;;;5066097;28;20457;-62
2022/02/03 08:43:34;;;;;;;7.60;6.77;;;10.10;99.90;;;;;;5071883;28;20213;-60
2022/02/03 08:46:04;;;;;;;7.65;6.93;;;10.00;99.90;;;;;;5049156;28;20272;-63
2022/02/03 08:48:30;;;;;;;7.20;6.45;;;10.10;99.90;;;;;;5063603;28;20642;-62
2022/02/03 08:50:56;;;;;;;6.50;5.90;;;9.90;99.90;;;;;;5069944;28;20280;-60
2022/02/03 08:53:36;;;;;;;7.50;6.43;;;10.00;99.90;;;;;;5079692;28;20471;-59
2022/02/03 08:56:24;;;;;;;7.45;6.32;;;10.10;99.90;;;;;;5061773;28;20638;-68
2022/02/03 08:59:57;;;;;;;6.30;5.47;;;10.10;99.90;;;;;;5063145;28;20181;-62
2022/02/03 09:34:30;;;;;;;3.78;3.47;;;11.20;99.90;;;;;;5065891;28;20198;-61
2022/02/03 09:40:15;;;;;;;3.03;2.83;;;11.00;99.90;;;;;;5057443;28;20224;-62
2022/02/03 09:54:14;;;;;;;4.60;4.20;;;11.20;99.90;;;;;;5057104;28;20732;-64
2022/02/03 09:59:31;;;;;;;2.92;2.67;;;11.30;99.90;;;;;;5064246;28;20557;-67
2022/02/03 10:02:08;;;;;;;3.03;2.83;;;11.70;99.90;;;;;;5063172;28;20278;-67
2022/02/03 10:07:24;;;;;;;3.17;2.20;;;11.50;99.90;;;;;;5069174;28;20199;-67
2022/02/03 10:09:54;;;;;;;2.58;2.38;;;11.40;99.90;;;;;;5063293;28;20355;-65
2022/02/03 10:12:30;;;;;;;2.35;2.15;;;11.60;99.90;;;;;;5059389;28;20191;-67
2022/02/03 10:14:56;;;;;;;2.05;1.92;;;11.50;99.90;;;;;;5063685;28;20280;-67
2022/02/03 10:17:32;;;;;;;2.25;2.05;;;11.60;99.90;;;;;;5048478;28;20229;-69
2022/02/03 10:20:00;;;;;;;1.70;1.60;;;11.70;99.90;;;;;;5056919;28;20180;-71
2022/02/03 10:22:27;;;;;;;2.80;2.60;;;12.30;99.90;;;;;;5068205;28;20185;-62
2022/02/03 10:25:01;;;;;;;2.20;2.10;;;12.60;99.90;;;;;;5068868;28;20683;-59
2022/02/03 10:27:30;;;;;;;2.13;1.90;;;12.50;99.90;;;;;;5058492;28;20192;-60
2022/02/03 10:30:12;;;;;;;2.25;2.05;;;12.80;99.90;;;;;;5067873;28;20625;-59
2022/02/03 10:32:43;;;;;;;2.00;1.90;;;12.70;99.90;;;;;;5049375;28;20574;-60
2022/02/03 10:35:29;;;;;;;1.80;1.70;;;12.50;99.90;;;;;;5062751;28;20715;-60
2022/02/03 10:38:43;;;;;;;4.85;1.67;;;12.80;99.90;;;;;;5064649;28;20204;-62
2022/02/03 10:41:24;;;;;;;2.05;1.85;;;13.00;99.90;;;;;;5058094;28;20201;-59
2022/02/03 10:46:48;;;;;;;1.70;1.60;;;13.30;99.70;;;;;;5058106;28;20185;-60
2022/02/03 10:55:20;;;;;;;1.90;1.70;;;12.90;97.50;;;;;;5056661;28;20215;-60
2022/02/03 11:05:50;;;;;;;1.85;1.75;;;13.20;99.30;;;;;;5069222;28;20650;-60
2022/02/03 11:08:40;;;;;;;1.95;1.85;;;13.30;99.60;;;;;;5063881;28;20458;-60
2022/02/03 11:11:15;;;;;;;1.77;1.67;;;13.20;99.70;;;;;;5064415;28;20250;-59
2022/02/03 11:13:41;;;;;;;1.70;1.60;;;12.70;99.90;;;;;;5054207;28;20216;-59
2022/02/03 11:16:09;;;;;;;2.60;2.40;;;13.30;99.90;;;;;;5075495;28;20508;-59
2022/02/03 11:18:36;;;;;;;2.42;1.98;;;13.10;99.40;;;;;;5059263;28;20181;-62
2022/02/03 11:21:02;;;;;;;4.28;3.28;;;12.90;99.20;;;;;;5059900;28;20646;-63
2022/02/03 11:55:32;;;;;;;2.45;1.92;;;12.50;99.90;;;;;;5061046;28;20219;-60
2022/02/03 12:20:44;;;;;;;6.10;1.75;;;12.60;99.90;;;;;;5076237;28;20699;-57
2022/02/03 12:26:33;;;;;;;1.60;1.50;;;12.50;99.80;;;;;;5056791;28;21150;-65
2022/02/03 12:29:07;;;;;;;2.70;1.70;;;12.80;99.90;;;;;;5062687;28;20196;-65
2022/02/03 12:39:45;;;;;;;6.78;2.08;;;12.70;99.90;;;;;;5064219;28;20194;-64
2022/02/03 12:43:26;;;;;;;2.28;2.08;;;12.70;99.90;;;;;;5059800;28;20247;-66
2022/02/03 12:45:23;;;;;;;1.67;1.58;;;12.60;99.90;;;;;;5057693;28;20217;-65
2022/02/03 12:47:52;;;;;;;1.38;1.27;;;12.50;99.80;;;;;;5060815;28;20185;-64
2022/02/03 12:50:33;;;;;;;1.73;1.63;;;12.60;99.80;;;;;;5066554;28;20263;-64
2022/02/03 12:53:00;;;;;;;1.58;1.48;;;12.80;99.90;;;;;;5063824;28;20183;-65
2022/02/03 12:55:36;;;;;;;1.98;1.50;;;12.60;99.70;;;;;;5063388;28;20205;-59
2022/02/03 12:58:14;;;;;;;3.17;2.10;;;12.80;99.50;;;;;;5061930;28;20669;-59
2022/02/03 13:00:48;;;;;;;1.83;1.70;;;12.80;99.40;;;;;;5067620;28;20181;-60
2022/02/03 13:03:16;;;;;;;1.42;1.30;;;12.80;99.20;;;;;;5065262;28;20328;-59
2022/02/03 13:05:57;;;;;;;1.65;1.55;;;13.10;99.30;;;;;;5064364;28;20264;-62
2022/02/03 13:08:41;;;;;;;1.60;1.50;;;12.80;99.10;;;;;;5071666;28;20303;-62
2022/02/03 13:11:16;;;;;;;1.65;1.50;;;12.80;99.70;;;;;;5063562;28;21141;-59
2022/02/03 13:13:57;;;;;;;1.60;1.50;;;12.70;99.60;;;;;;5048196;28;20220;-60
2022/02/03 13:16:23;;;;;;;1.73;1.55;;;12.70;99.60;;;;;;5064768;28;20181;-59
2022/02/03 13:19:32;;;;;;;3.63;1.58;;;12.90;99.80;;;;;;5057095;28;20226;-58
2022/02/03 13:22:20;;;;;;;2.92;1.77;;;12.70;99.70;;;;;;5065281;28;20185;-62
2022/02/03 13:25:02;;;;;;;6.80;2.10;;;12.50;99.90;;;;;;5056929;28;20234;-58
2022/02/03 13:27:38;;;;;;;2.30;1.70;;;12.60;99.90;;;;;;5054859;28;20678;-61
2022/02/03 13:30:15;;;;;;;1.50;1.20;;;12.40;99.90;;;;;;5062729;28;20761;-59
2022/02/03 13:32:46;;;;;;;3.67;2.60;;;12.30;99.90;;;;;;5071317;28;20203;-60
2022/02/03 13:35:30;;;;;;;2.72;1.80;;;12.30;99.90;;;;;;5068001;28;20683;-60
2022/02/03 13:38:03;;;;;;;1.60;1.50;;;12.10;99.90;;;;;;5058498;28;20191;-60
2022/02/03 13:40:29;;;;;;;2.78;1.50;;;12.10;99.90;;;;;;5060890;28;20353;-59
2022/02/03 13:43:09;;;;;;;2.05;1.65;;;12.10;99.90;;;;;;5051516;28;20809;-59
2022/02/03 13:45:39;;;;;;;3.58;2.30;;;12.30;99.90;;;;;;5060899;28;20206;-62
2022/02/03 13:48:15;;;;;;;1.90;1.80;;;12.40;99.90;;;;;;5062825;28;20211;-60
2022/02/03 13:50:40;;;;;;;1.65;1.55;;;12.30;99.90;;;;;;5060744;28;20648;-60
2022/02/03 13:53:21;;;;;;;1.63;1.53;;;12.40;99.90;;;;;;5061299;28;20198;-60
2022/02/03 14:13:27;;;;;;;1.60;1.50;;;12.30;99.90;;;;;;5067290;28;20683;-60
2022/02/03 14:18:14;;;;;;;1.70;1.60;;;12.30;99.90;;;;;;5046064;28;20196;-58
2022/02/03 14:20:45;;;;;;;1.60;1.50;;;12.60;99.90;;;;;;5060676;28;20204;-57
2022/02/03 14:28:26;;;;;;;3.50;2.08;;;12.70;99.90;;;;;;5048428;28;20192;-59
2022/02/03 14:30:55;;;;;;;2.03;1.93;;;12.20;99.90;;;;;;5062903;28;20182;-59
2022/02/03 14:33:30;;;;;;;2.03;1.83;;;12.40;99.90;;;;;;5058596;28;20582;-61
2022/02/03 14:36:05;;;;;;;2.10;1.45;;;12.20;99.90;;;;;;5062933;28;20212;-63
2022/02/03 14:38:39;;;;;;;1.50;1.40;;;12.20;99.90;;;;;;5062373;28;20226;-61
2022/02/03 14:41:18;;;;;;;1.83;1.65;;;12.20;99.90;;;;;;5058318;28;20185;-61
2022/02/03 14:43:44;;;;;;;1.73;1.63;;;12.30;99.90;;;;;;5060310;28;20644;-64
2022/02/03 14:46:14;;;;;;;1.73;1.63;;;12.10;99.90;;;;;;5056680;28;20207;-58
2022/02/03 14:48:43;;;;;;;2.60;1.90;;;12.40;99.90;;;;;;5049630;28;20532;-57
2022/02/03 14:51:10;;;;;;;2.00;1.70;;;12.10;99.90;;;;;;5061924;28;20188;-59
2022/02/03 14:53:50;;;;;;;2.25;1.80;;;12.30;99.90;;;;;;5057058;28;20211;-60
2022/02/03 14:59:01;;;;;;;2.70;2.50;;;11.80;99.90;;;;;;5064277;28;20232;-62
2022/02/03 15:01:27;;;;;;;2.30;1.97;;;12.00;99.90;;;;;;5058651;28;20192;-61
2022/02/03 15:03:56;;;;;;;2.08;1.98;;;11.90;99.90;;;;;;5052676;28;20643;-61
2022/02/03 15:06:27;;;;;;;2.40;2.20;;;12.10;99.90;;;;;;5056833;28;20194;-61
2022/02/03 15:09:15;;;;;;;2.47;2.28;;;12.10;99.90;;;;;;5058048;28;20188;-61
2022/02/03 15:11:57;;;;;;;2.00;1.90;;;11.60;99.90;;;;;;5054926;28;20636;-61
2022/02/03 15:14:23;;;;;;;2.80;2.47;;;11.80;99.90;;;;;;5060547;28;20594;-62
2022/02/03 15:16:49;;;;;;;1.90;1.80;;;11.80;99.90;;;;;;5054845;28;20266;-60
2022/02/03 15:19:14;;;;;;;2.40;1.75;;;11.60;99.90;;;;;;5053995;28;20502;-60
2022/02/03 15:21:40;;;;;;;2.20;2.00;;;11.80;99.90;;;;;;5062656;28;20212;-61
2022/02/03 15:24:08;;;;;;;1.80;1.70;;;11.70;99.90;;;;;;5064129;28;20216;-61
2022/02/03 15:26:33;;;;;;;2.00;1.90;;;11.80;99.90;;;;;;5059328;28;20533;-61
2022/02/03 15:28:59;;;;;;;2.40;2.20;;;11.50;99.90;;;;;;5065369;28;20277;-61
2022/02/03 15:31:32;;;;;;;2.13;1.90;;;11.50;99.90;;;;;;5063737;28;20524;-61
2022/02/03 15:34:09;;;;;;;2.38;1.90;;;11.50;99.90;;;;;;5065616;28;20569;-61
2022/02/03 15:36:37;;;;;;;2.15;1.95;;;11.50;99.90;;;;;;5060216;28;20189;-61
2022/02/03 15:39:09;;;;;;;4.28;2.05;;;11.20;99.90;;;;;;5072464;28;20186;-61
2022/02/03 15:41:36;;;;;;;2.95;2.50;;;11.20;99.90;;;;;;5054073;28;20181;-61
2022/02/03 15:44:02;;;;;;;2.45;2.15;;;11.60;99.90;;;;;;5060374;28;20201;-61
2022/02/03 15:46:31;;;;;;;3.35;2.22;;;11.50;99.90;;;;;;5067298;28;20653;-61
2022/02/03 16:18:10;;;;;;;2.50;2.30;;;10.80;99.90;;;;;;5056855;28;20427;-61
2022/02/03 16:20:46;;;;;;;3.30;2.30;;;10.70;99.90;;;;;;5067414;28;20173;-61
2022/02/03 16:23:48;;;;;;;8.00;2.55;;;10.60;99.90;;;;;;5061318;28;20773;-61
2022/02/03 16:50:48;;;;;;;3.63;3.10;;;10.30;99.90;;;;;;5063513;28;20207;-61
2022/02/03 16:53:14;;;;;;;5.10;2.95;;;9.90;99.90;;;;;;5069039;28;20226;-61
2022/02/03 16:55:42;;;;;;;5.73;3.50;;;9.90;99.90;;;;;;5071381;28;20444;-61
2022/02/03 16:58:10;;;;;;;3.83;3.10;;;10.10;99.90;;;;;;5059269;28;20711;-61
2022/02/03 17:00:36;;;;;;;3.17;2.88;;;10.10;99.90;;;;;;5065986;28;20214;-61
2022/02/03 17:03:03;;;;;;;4.20;2.95;;;9.90;99.90;;;;;;5053905;28;20178;-61
2022/02/03 17:05:29;;;;;;;4.15;3.00;;;9.30;99.90;;;;;;5059990;28;20205;-61
2022/02/03 17:07:55;;;;;;;3.75;3.10;;;9.60;99.90;;;;;;5069784;28;20594;-61
2022/02/03 17:10:21;;;;;;;4.93;3.72;;;9.70;99.90;;;;;;5062264;28;20197;-61
2022/02/03 17:12:47;;;;;;;3.87;3.33;;;9.70;99.90;;;;;;5062405;28;20193;-61
2022/02/03 17:15:12;;;;;;;7.93;4.70;;;9.50;99.90;;;;;;5054160;28;20569;-61
2022/02/03 17:17:38;;;;;;;4.73;3.67;;;9.00;99.90;;;;;;5056131;28;20458;-61
2022/02/03 17:20:04;;;;;;;3.67;3.27;;;9.60;99.90;;;;;;5061395;28;20173;-61
2022/02/03 17:22:35;;;;;;;19.27;16.35;;;9.70;99.90;;;;;;5070396;28;20181;-61
2022/02/03 17:25:23;;;;;;;5.10;4.60;;;9.60;99.90;;;;;;5065069;28;20680;-61
2022/02/03 17:28:05;;;;;;;5.65;4.68;;;9.80;99.90;;;;;;5056129;28;20266;-61
2022/02/03 17:30:38;;;;;;;5.32;4.10;;;9.80;99.90;;;;;;5066532;28;20184;-61
2022/02/03 17:52:31;;;;;;;9.85;4.70;;;9.60;99.90;;;;;;5062874;28;20728;-61
2022/02/03 18:10:59;;;;;;;3.88;3.45;;;9.20;99.90;;;;;;5067345;28;20654;-61
2022/02/03 18:30:18;;;;;;;4.68;4.28;;;8.90;99.90;;;;;;5068154;28;20645;-61
2022/02/03 18:33:46;;;;;;;4.10;3.70;;;9.00;99.90;;;;;;5055846;28;20276;-61
2022/02/03 18:35:50;;;;;;;3.97;3.63;;;9.20;99.90;;;;;;5051573;28;20193;-61
2022/02/03 19:00:06;;;;;;;5.82;4.50;;;8.00;99.90;;;;;;5055574;28;20281;-61
2022/02/03 19:21:21;;;;;;;8.73;5.10;;;8.20;99.90;;;;;;5074489;28;20219;-62
2022/02/03 19:56:29;;;;;;;6.50;5.38;;;8.20;99.90;;;;;;5059530;28;20208;-59
2022/02/03 19:57:23;;;;;;;7.32;4.60;;;7.70;99.90;;;;;;5053996;28;20227;-61
2022/02/03 20:00:52;;;;;;;6.53;5.60;;;7.40;99.90;;;;;;5065173;28;20185;-61
2022/02/03 20:02:46;;;;;;;4.60;4.15;;;8.00;99.90;;;;;;5058666;28;20197;-61
2022/02/03 20:05:39;;;;;;;4.72;3.97;;;7.60;99.90;;;;;;5064045;28;20614;-61
2022/02/03 20:10:25;;;;;;;6.73;5.90;;;7.60;99.90;;;;;;5066712;28;20649;-61
2022/02/03 20:12:52;;;;;;;6.78;6.07;;;6.90;99.90;;;;;;5061600;28;20183;-62
2022/02/03 20:15:20;;;;;;;9.70;6.55;;;7.60;99.90;;;;;;5061002;28;20267;-61
2022/02/03 20:17:47;;;;;;;6.45;4.88;;;7.60;99.90;;;;;;5057711;28;20692;-61
2022/02/03 20:20:13;;;;;;;5.95;5.22;;;7.30;99.90;;;;;;5055549;28;20182;-61
2022/02/03 20:22:39;;;;;;;6.68;5.68;;;7.50;99.90;;;;;;5066390;28;20238;-61
2022/02/03 20:25:07;;;;;;;5.82;5.30;;;7.40;99.90;;;;;;5060278;28;20614;-62
2022/02/03 20:27:33;;;;;;;7.50;5.65;;;7.50;99.90;;;;;;5070237;28;20242;-62
2022/02/03 20:29:59;;;;;;;10.97;6.13;;;7.00;99.90;;;;;;5059973;28;20939;-63
2022/02/03 20:32:28;;;;;;;5.80;5.27;;;7.70;99.90;;;;;;5054825;28;20197;-62
2022/02/03 20:34:54;;;;;;;5.40;4.97;;;7.60;99.90;;;;;;5063226;28;20463;-63
2022/02/03 20:37:19;;;;;;;8.13;5.33;;;7.70;99.90;;;;;;5060572;28;20224;-63
2022/02/03 20:39:45;;;;;;;6.63;5.40;;;7.60;99.90;;;;;;5065430;28;20439;-62
2022/02/03 20:42:15;;;;;;;7.03;6.33;;;7.80;99.90;;;;;;5055599;28;20177;-62
2022/02/03 20:44:48;;;;;;;8.90;7.03;;;7.40;99.90;;;;;;5061878;28;20330;-62
2022/02/03 20:47:14;;;;;;;11.30;6.30;;;7.20;99.90;;;;;;5055821;28;20189;-63
2022/02/03 20:49:41;;;;;;;9.53;7.30;;;7.20;99.90;;;;;;5069417;28;20676;-60
2022/02/03 20:52:07;;;;;;;7.18;5.93;;;7.20;99.90;;;;;;5066695;28;20547;-63
2022/02/03 20:54:33;;;;;;;5.78;5.07;;;7.30;99.90;;;;;;5066558;28;20587;-62
2022/02/03 20:56:59;;;;;;;6.40;5.80;;;6.70;99.90;;;;;;5064884;28;20666;-63
2022/02/03 20:59:29;;;;;;;7.20;5.50;;;7.10;99.90;;;;;;5065925;28;20181;-63
2022/02/03 21:01:58;;;;;;;8.35;5.95;;;7.20;99.90;;;;;;5063792;28;20199;-63
2022/02/03 21:04:58;;;;;;;6.63;5.60;;;7.20;99.90;;;;;;5055057;28;20972;-63
2022/02/03 21:07:24;;;;;;;7.53;5.68;;;7.30;99.90;;;;;;5062955;28;20371;-63
2022/02/03 21:09:49;;;;;;;6.53;5.53;;;7.10;99.90;;;;;;5064534;28;20401;-63
2022/02/03 21:12:16;;;;;;;6.80;5.60;;;7.20;99.90;;;;;;5057717;28;20260;-63
2022/02/03 21:14:41;;;;;;;7.20;6.50;;;7.30;99.90;;;;;;5062807;28;20290;-63
2022/02/03 21:17:07;;;;;;;9.60;6.93;;;7.30;99.90;;;;;;5060787;28;20178;-63
2022/02/03 21:19:33;;;;;;;7.97;6.57;;;7.00;99.90;;;;;;5059332;28;20200;-63
2022/02/03 21:21:59;;;;;;;6.97;6.33;;;7.10;99.90;;;;;;5066182;28;20481;-63
2022/02/03 21:24:24;;;;;;;7.70;6.93;;;7.20;99.90;;;;;;5070547;28;20496;-63
2022/02/03 21:26:53;;;;;;;8.87;6.50;;;6.60;99.90;;;;;;5057310;28;20341;-63
2022/02/03 21:29:18;;;;;;;9.27;7.38;;;7.20;99.90;;;;;;5066213;28;20212;-62
2022/02/03 21:31:44;;;;;;;7.80;6.83;;;7.20;99.90;;;;;;5056902;28;22157;-62
2022/02/03 21:34:15;;;;;;;8.27;6.87;;;7.10;99.90;;;;;;5064528;28;20545;-63
2022/02/03 21:36:42;;;;;;;7.78;6.97;;;6.50;99.90;;;;;;5066128;28;20184;-63
2022/02/03 21:39:08;;;;;;;7.25;6.40;;;7.00;99.90;;;;;;5055135;28;20177;-63
2022/02/03 21:41:33;;;;;;;6.50;5.73;;;6.80;99.90;;;;;;5068984;28;20227;-63
2022/02/03 21:43:59;;;;;;;7.70;6.30;;;7.20;99.90;;;;;;5069379;28;20209;-63
2022/02/03 21:46:25;;;;;;;7.00;6.20;;;7.10;99.90;;;;;;5064527;28;20542;-63
2022/02/03 21:48:50;;;;;;;7.00;6.30;;;6.50;99.90;;;;;;5057940;28;20268;-61
2022/02/03 21:51:24;;;;;;;7.30;6.40;;;6.70;99.90;;;;;;5062844;28;20176;-61
2022/02/03 21:53:51;;;;;;;7.90;6.88;;;6.80;99.90;;;;;;5062723;28;20212;-61
2022/02/03 21:56:18;;;;;;;7.40;6.70;;;6.90;99.90;;;;;;5053550;28;20192;-61
2022/02/03 21:58:44;;;;;;;7.78;6.80;;;6.70;99.90;;;;;;5059960;28;20185;-61
2022/02/03 22:01:09;;;;;;;8.50;6.53;;;6.60;99.90;;;;;;5068805;28;20243;-61
2022/02/03 22:03:35;;;;;;;7.40;6.60;;;6.60;99.90;;;;;;5061267;28;20642;-61
2022/02/03 22:06:01;;;;;;;8.20;7.40;;;7.00;99.90;;;;;;5065948;28;20191;-61
2022/02/03 22:08:27;;;;;;;9.10;7.80;;;6.80;99.90;;;;;;5061385;28;20186;-61
2022/02/03 22:10:56;;;;;;;10.05;8.50;;;6.80;99.90;;;;;;5060490;28;20534;-61
2022/02/03 22:13:22;;;;;;;10.00;8.65;;;6.30;99.90;;;;;;5058686;28;20200;-61
2022/02/03 22:15:47;;;;;;;8.77;7.88;;;6.20;99.90;;;;;;5067010;28;20197;-61
2022/02/03 22:18:16;;;;;;;9.10;8.10;;;7.00;99.90;;;;;;5065459;28;20181;-61
2022/02/03 22:21:06;;;;;;;10.13;8.35;;;7.00;99.90;;;;;;5063886;28;20576;-61
2022/02/03 22:42:49;;;;;;;7.95;7.00;;;6.70;99.90;;;;;;5058940;28;20207;-61
2022/02/03 22:50:18;;;;;;;9.57;8.40;;;6.40;99.90;;;;;;5063134;28;20239;-61
2022/02/03 22:52:44;;;;;;;8.55;7.75;;;6.70;99.90;;;;;;5063986;28;20271;-62
2022/02/03 22:55:12;;;;;;;9.88;8.88;;;6.60;99.90;;;;;;5060499;28;20235;-61
2022/02/03 22:57:39;;;;;;;11.75;8.52;;;6.50;99.90;;;;;;5059638;28;20616;-61
2022/02/03 23:00:21;;;;;;;9.60;8.27;;;6.40;99.90;;;;;;5060537;28;20196;-61
2022/02/03 23:02:47;;;;;;;10.15;8.50;;;7.10;99.90;;;;;;5057912;28;20665;-61
2022/02/03 23:05:13;;;;;;;11.93;8.40;;;6.30;99.90;;;;;;5068344;28;20213;-61
2022/02/03 23:10:20;;;;;;;9.55;8.65;;;6.70;99.90;;;;;;5065176;28;20698;-61
2022/02/03 23:19:05;;;;;;;8.88;8.05;;;6.50;99.90;;;;;;5024860;28;20189;-62
2022/02/03 23:23:50;;;;;;;9.75;7.38;;;6.60;99.90;;;;;;5063193;28;20698;-61
2022/02/03 23:26:19;;;;;;;8.53;7.47;;;6.60;99.90;;;;;;5072539;28;20181;-61
2022/02/03 23:28:44;;;;;;;8.05;7.25;;;6.10;99.90;;;;;;5060175;28;20566;-61
2022/02/03 23:31:10;;;;;;;8.70;7.47;;;6.80;99.90;;;;;;5068874;28;20184;-61
2022/02/03 23:33:36;;;;;;;8.33;7.13;;;6.10;99.90;;;;;;5054390;28;20751;-61
2022/02/03 23:36:01;;;;;;;8.37;7.30;;;6.60;99.90;;;;;;5059051;28;20188;-61
2022/02/03 23:38:42;;;;;;;8.60;7.70;;;6.60;99.90;;;;;;5062866;28;20695;-61
2022/02/03 23:44:13;;;;;;;9.48;8.00;;;6.70;99.90;;;;;;5042915;28;20216;-61
2022/02/03 23:47:12;;;;;;;8.43;7.63;;;6.40;99.90;;;;;;5066708;28;20471;-61
